Time;durP1;ratioP1;P1;durP2;ratioP2;P2;SDS_P1;SDS_P2;PMS_P1;PMS_P2;Temp;Humidity;BMP_temperature;BMP_pressure;BME280_temperature;BME280_humidity;BME280_pressure;Samples;Min_cycle;Max_cycle;Signal;HPM_P1;HPM_P2
2022/10/20 00:00:58;;;;;;;0.40;0.40;;;;;;;21.98;36.38;100587.34;4967109;28;20242;-84
2022/10/20 00:03:27;;;;;;;0.63;0.50;;;;;;;21.79;36.48;100582.28;4962733;28;20035;-84
2022/10/20 00:05:53;;;;;;;0.73;0.50;;;;;;;21.73;36.65;100594.19;4961407;28;20393;-84
2022/10/20 00:08:19;;;;;;;0.40;0.40;;;;;;;21.67;36.82;100584.34;4949293;28;20034;-84
2022/10/20 00:10:54;;;;;;;2.60;0.50;;;;;;;21.69;36.66;100582.19;4967691;28;20113;-84
2022/10/20 00:13:20;;;;;;;0.50;0.40;;;;;;;21.88;36.46;100591.59;4964078;28;20026;-84
2022/10/20 00:15:52;;;;;;;0.40;0.40;;;;;;;22.08;35.86;100579.28;4968182;28;20464;-84
2022/10/20 00:18:18;;;;;;;0.80;0.50;;;;;;;22.38;35.56;100591.50;4964425;28;20042;-84
2022/10/20 00:20:44;;;;;;;0.25;0.25;;;;;;;22.52;35.19;100584.50;4969027;28;20115;-84
2022/10/20 00:23:09;;;;;;;0.40;0.40;;;;;;;22.59;35.29;100596.00;4976851;28;20406;-84
2022/10/20 00:25:35;;;;;;;0.55;0.50;;;;;;;22.53;35.16;100575.28;4986540;28;20046;-84
2022/10/20 00:28:00;;;;;;;0.68;0.50;;;;;;;22.55;35.14;100592.16;4967708;28;20457;-84
2022/10/20 00:30:26;;;;;;;0.70;0.50;;;;;;;22.43;35.35;100597.00;4968863;28;20023;-84
2022/10/20 00:32:51;;;;;;;0.55;0.50;;;;;;;22.30;35.53;100592.78;4964959;28;20480;-84
2022/10/20 00:35:17;;;;;;;0.57;0.50;;;;;;;22.18;35.61;100584.81;4967080;28;20476;-84
2022/10/20 00:37:43;;;;;;;0.77;0.40;;;;;;;22.11;35.83;100584.19;4971056;28;20031;-84
2022/10/20 00:40:09;;;;;;;0.98;0.43;;;;;;;22.12;35.69;100588.56;4973572;28;20023;-84
2022/10/20 00:42:34;;;;;;;0.93;0.50;;;;;;;22.09;35.80;100575.44;4967223;28;20113;-84
2022/10/20 00:45:00;;;;;;;0.95;0.40;;;;;;;22.30;35.33;100582.75;4954235;28;20106;-84
2022/10/20 00:47:31;;;;;;;0.50;0.50;;;;;;;22.48;35.21;100583.41;4981740;28;20206;-84
2022/10/20 00:50:02;;;;;;;0.52;0.40;;;;;;;22.62;35.01;100584.56;4969154;28;20043;-84
2022/10/20 00:52:27;;;;;;;0.90;0.63;;;;;;;22.75;34.64;100582.47;4952744;28;20027;-84
2022/10/20 00:54:53;;;;;;;0.90;0.50;;;;;;;22.79;34.52;100583.59;4969733;28;20057;-84
2022/10/20 00:57:19;;;;;;;0.82;0.50;;;;;;;22.82;34.42;100589.31;4957563;28;20088;-84
2022/10/20 00:59:44;;;;;;;0.60;0.50;;;;;;;22.78;34.66;100585.47;4973824;28;20173;-84
2022/10/20 01:02:10;;;;;;;0.63;0.40;;;;;;;22.66;34.61;100588.44;4966485;28;20113;-84
2022/10/20 01:04:35;;;;;;;0.30;0.30;;;;;;;22.58;34.77;100583.47;4962536;28;20034;-84
2022/10/20 01:07:02;;;;;;;1.02;0.35;;;;;;;22.43;35.07;100584.19;4966735;28;20126;-84
2022/10/20 01:09:28;;;;;;;0.70;0.40;;;;;;;22.40;35.14;100581.16;4957384;28;20077;-84
2022/10/20 01:12:14;;;;;;;0.40;0.40;;;;;;;22.43;34.86;100575.19;4982188;28;20023;-84
2022/10/20 01:15:06;;;;;;;0.52;0.30;;;;;;;22.44;34.86;100568.69;4953284;28;20026;-84
2022/10/20 01:17:50;;;;;;;0.57;0.57;;;;;;;22.66;34.65;100573.97;4955763;28;20400;-84
2022/10/20 01:20:37;;;;;;;0.70;0.40;;;;;;;22.80;34.51;100590.66;4961330;28;20312;-84
2022/10/20 01:23:22;;;;;;;1.08;0.40;;;;;;;22.90;34.22;100584.47;4974240;28;20023;-84
2022/10/20 01:25:53;;;;;;;0.63;0.40;;;;;;;22.96;34.10;100589.66;4987627;28;20058;-84
2022/10/20 01:28:25;;;;;;;1.00;0.45;;;;;;;22.91;34.26;100580.66;4969254;28;20217;-84
2022/10/20 01:30:57;;;;;;;0.50;0.32;;;;;;;22.84;34.15;100584.44;4986344;28;20499;-84
2022/10/20 01:34:02;;;;;;;0.38;0.30;;;;;;;22.75;34.29;100577.84;4963445;28;20031;-84
2022/10/20 01:36:33;;;;;;;0.40;0.40;;;;;;;22.72;34.23;100574.84;4943026;28;21107;-84
2022/10/20 01:39:00;;;;;;;0.50;0.40;;;;;;;22.62;34.47;100560.06;4940522;28;20212;-84
2022/10/20 01:41:32;;;;;;;0.65;0.40;;;;;;;22.70;34.49;100577.81;4969515;28;20031;-84
2022/10/20 01:43:59;;;;;;;1.15;0.50;;;;;;;22.73;34.40;100573.75;4940698;28;20030;-84
2022/10/20 01:46:24;;;;;;;1.60;0.50;;;;;;;22.83;34.18;100584.69;4944460;28;20030;-84
2022/10/20 01:48:50;;;;;;;0.60;0.40;;;;;;;22.92;34.05;100580.41;4978318;28;20077;-84
2022/10/20 01:51:16;;;;;;;0.38;0.30;;;;;;;23.01;33.80;100575.25;4955022;28;20143;-84
2022/10/20 01:53:41;;;;;;;0.43;0.40;;;;;;;23.03;33.75;100575.81;4965764;28;20454;-84
2022/10/20 01:56:19;;;;;;;1.48;0.35;;;;;;;23.01;33.70;100577.97;4985534;28;20157;-84
2022/10/20 01:59:03;;;;;;;1.13;0.35;;;;;;;22.99;33.71;100578.25;4938583;28;20027;-84
2022/10/20 02:01:29;;;;;;;0.73;0.50;;;;;;;22.95;33.77;100577.13;4982479;28;20428;-84
2022/10/20 02:03:56;;;;;;;0.73;0.50;;;;;;;22.95;33.99;100577.13;4974421;28;20046;-84
2022/10/20 02:06:33;;;;;;;0.75;0.45;;;;;;;22.90;33.84;100579.81;4960616;28;20055;-84
2022/10/20 02:09:02;;;;;;;2.38;0.40;;;;;;;22.88;33.92;100571.91;4976075;28;20035;-84
2022/10/20 02:11:46;;;;;;;0.45;0.40;;;;;;;22.88;33.83;100571.09;4961618;28;20566;-84
2022/10/20 02:14:13;;;;;;;0.50;0.30;;;;;;;22.89;33.85;100570.03;4974794;28;20140;-84
2022/10/20 02:16:43;;;;;;;0.52;0.40;;;;;;;23.04;33.69;100571.97;4963522;28;20054;-84
2022/10/20 02:19:09;;;;;;;0.52;0.50;;;;;;;23.05;33.86;100576.34;4982322;28;20034;-84
2022/10/20 02:21:35;;;;;;;0.40;0.40;;;;;;;23.09;33.59;100571.22;4957339;28;20031;-84
2022/10/20 02:24:02;;;;;;;0.35;0.35;;;;;;;23.10;33.43;100572.88;4982307;28;21113;-84
2022/10/20 02:26:29;;;;;;;0.40;0.40;;;;;;;23.03;33.58;100567.63;4971997;28;20031;-83
2022/10/20 02:28:58;;;;;;;0.57;0.43;;;;;;;23.03;33.65;100571.16;4949156;28;20062;-83
2022/10/20 02:31:23;;;;;;;0.77;0.40;;;;;;;23.02;33.77;100571.41;4957744;28;20026;-84
2022/10/20 02:33:49;;;;;;;0.30;0.30;;;;;;;22.99;33.68;100569.22;4945435;28;20034;-84
2022/10/20 02:36:17;;;;;;;0.40;0.40;;;;;;;23.02;33.58;100571.41;4956368;28;20030;-84
2022/10/20 02:38:43;;;;;;;1.90;0.45;;;;;;;22.98;33.62;100560.25;4969856;28;20086;-84
2022/10/20 02:41:08;;;;;;;0.40;0.35;;;;;;;23.10;33.57;100568.22;4960180;28;20917;-84
2022/10/20 02:43:34;;;;;;;0.40;0.40;;;;;;;23.10;33.61;100564.69;4977737;28;20133;-84
2022/10/20 02:45:59;;;;;;;0.60;0.32;;;;;;;23.13;33.60;100566.84;4959963;28;20497;-84
2022/10/20 02:48:25;;;;;;;0.47;0.40;;;;;;;23.11;33.33;100563.59;4973681;28;20054;-84
2022/10/20 02:50:51;;;;;;;0.40;0.40;;;;;;;23.21;33.23;100563.63;4954989;28;20062;-84
2022/10/20 02:53:16;;;;;;;0.50;0.50;;;;;;;23.20;33.16;100562.81;4958738;28;20125;-84
2022/10/20 02:55:42;;;;;;;0.65;0.40;;;;;;;23.19;33.47;100565.78;4984738;28;20033;-84
2022/10/20 02:58:08;;;;;;;2.13;0.47;;;;;;;23.20;33.14;100562.00;4970773;28;20026;-84
2022/10/20 03:00:34;;;;;;;0.60;0.50;;;;;;;23.18;33.10;100559.53;4966933;28;20503;-84
2022/10/20 03:02:59;;;;;;;0.40;0.30;;;;;;;23.17;33.20;100573.44;4953174;28;20166;-84
2022/10/20 03:05:25;;;;;;;2.88;0.40;;;;;;;23.18;33.23;100575.06;4974695;28;20527;-84
2022/10/20 03:07:52;;;;;;;0.35;0.30;;;;;;;23.15;33.20;100576.41;4981437;28;20079;-84
2022/10/20 03:10:18;;;;;;;0.35;0.35;;;;;;;23.17;33.41;100573.44;4975292;28;20041;-84
2022/10/20 03:12:43;;;;;;;0.95;0.55;;;;;;;23.21;33.33;100575.34;4974209;28;20019;-84
2022/10/20 03:15:09;;;;;;;0.50;0.40;;;;;;;23.22;33.28;100581.63;4969087;28;20055;-84
2022/10/20 03:17:35;;;;;;;0.60;0.40;;;;;;;23.23;33.29;100575.06;4974577;28;20162;-84
2022/10/20 03:20:01;;;;;;;0.40;0.40;;;;;;;23.27;32.86;100573.47;4982331;28;20501;-83
2022/10/20 03:22:27;;;;;;;0.25;0.20;;;;;;;23.29;32.88;100575.94;4964852;28;20027;-85
2022/10/20 03:24:52;;;;;;;0.45;0.38;;;;;;;23.19;33.09;100565.78;4961061;28;20042;-84
2022/10/20 03:27:18;;;;;;;0.40;0.40;;;;;;;23.25;33.09;100587.38;4972719;28;20121;-83
2022/10/20 03:29:44;;;;;;;1.90;0.40;;;;;;;23.30;33.21;100588.47;4959487;28;20109;-84
2022/10/20 03:32:09;;;;;;;0.30;0.30;;;;;;;23.26;33.09;100585.44;4981691;28;20058;-84
2022/10/20 03:34:35;;;;;;;1.02;0.20;;;;;;;23.30;33.14;100583.84;4966324;28;20031;-83
2022/10/20 03:37:01;;;;;;;0.52;0.40;;;;;;;23.31;32.97;100585.47;4985657;28;21157;-84
2022/10/20 03:39:26;;;;;;;0.40;0.40;;;;;;;23.24;33.04;100574.81;4966397;28;20511;-83
2022/10/20 03:41:53;;;;;;;0.60;0.40;;;;;;;23.33;32.84;100583.28;4975181;28;20026;-84
2022/10/20 03:44:18;;;;;;;0.38;0.38;;;;;;;23.33;32.98;100577.81;4980141;28;20077;-83
2022/10/20 03:46:44;;;;;;;0.45;0.30;;;;;;;23.34;32.80;100584.94;4969138;28;20114;-84
2022/10/20 03:49:10;;;;;;;0.32;0.30;;;;;;;23.32;32.77;100587.13;4972348;28;20502;-83
2022/10/20 03:51:35;;;;;;;0.60;0.32;;;;;;;23.32;32.74;100586.28;4966740;28;20110;-83
2022/10/20 03:54:01;;;;;;;0.80;0.35;;;;;;;23.22;33.03;100568.00;4971094;28;20053;-84
2022/10/20 03:56:27;;;;;;;0.40;0.40;;;;;;;23.29;32.78;100575.94;4953002;28;20039;-83
2022/10/20 03:58:52;;;;;;;0.75;0.35;;;;;;;23.31;32.93;100585.47;4956270;28;20030;-84
2022/10/20 04:01:20;;;;;;;0.52;0.40;;;;;;;23.32;32.81;100583.56;4975798;28;20476;-84
2022/10/20 04:03:45;;;;;;;0.30;0.30;;;;;;;23.34;32.72;100584.94;4974520;28;20034;-83
2022/10/20 04:06:11;;;;;;;0.40;0.38;;;;;;;23.35;32.76;100597.50;4982483;28;20023;-84
2022/10/20 04:08:37;;;;;;;0.32;0.30;;;;;;;23.40;32.69;100593.94;4970661;28;20030;-84
2022/10/20 04:11:03;;;;;;;0.52;0.30;;;;;;;23.40;32.48;100594.78;4955355;28;20031;-84
2022/10/20 04:13:28;;;;;;;0.40;0.40;;;;;;;23.39;32.69;100587.69;4968684;28;20033;-84
2022/10/20 04:15:54;;;;;;;0.30;0.30;;;;;;;23.43;32.67;100588.78;4961045;28;20555;-84
2022/10/20 04:18:19;;;;;;;0.43;0.35;;;;;;;23.42;32.52;100584.41;4953507;28;20144;-84
2022/10/20 04:20:46;;;;;;;0.50;0.30;;;;;;;23.44;32.70;100576.78;4979826;28;20161;-84
2022/10/20 04:23:12;;;;;;;0.55;0.30;;;;;;;23.44;32.46;100578.69;4952535;28;20288;-83
2022/10/20 04:25:47;;;;;;;0.50;0.40;;;;;;;23.44;32.61;100587.69;4983219;28;20114;-84
2022/10/20 04:28:17;;;;;;;0.30;0.20;;;;;;;23.40;32.60;100575.69;4968941;28;20018;-84
2022/10/20 04:30:43;;;;;;;0.88;0.40;;;;;;;23.47;32.44;100588.25;4956668;28;20018;-84
2022/10/20 04:33:09;;;;;;;0.30;0.30;;;;;;;23.47;32.40;100582.78;4979173;28;20114;-83
2022/10/20 04:35:34;;;;;;;0.40;0.40;;;;;;;23.50;32.35;100579.53;4953955;28;20022;-84
2022/10/20 04:38:00;;;;;;;0.47;0.30;;;;;;;23.50;32.45;100582.25;4979315;28;20058;-84
2022/10/20 04:40:25;;;;;;;0.60;0.30;;;;;;;23.51;32.51;100578.41;4968438;28;20459;-84
2022/10/20 04:42:51;;;;;;;0.60;0.30;;;;;;;23.49;32.44;100580.59;4975419;28;20062;-83
2022/10/20 04:45:16;;;;;;;0.45;0.38;;;;;;;23.49;32.30;100592.34;4968465;28;20033;-83
2022/10/20 04:47:42;;;;;;;0.43;0.43;;;;;;;23.48;32.38;100589.88;4973443;28;20022;-84
2022/10/20 04:50:08;;;;;;;0.47;0.25;;;;;;;23.51;32.49;100602.97;4977927;28;20031;-84
2022/10/20 04:52:34;;;;;;;0.47;0.30;;;;;;;23.52;32.15;100604.63;4961803;28;20421;-83
2022/10/20 04:54:59;;;;;;;1.40;0.40;;;;;;;23.54;32.17;100596.97;4957334;28;20033;-84
2022/10/20 04:57:25;;;;;;;0.40;0.38;;;;;;;23.58;32.07;100601.63;4976788;28;20065;-84
2022/10/20 04:59:51;;;;;;;0.40;0.40;;;;;;;23.54;32.39;100592.38;4973632;28;20046;-84
2022/10/20 05:02:16;;;;;;;0.63;0.50;;;;;;;23.60;32.19;100609.56;4959900;28;20026;-84
2022/10/20 05:04:42;;;;;;;0.47;0.40;;;;;;;23.62;32.09;100607.38;4969749;28;20027;-84
2022/10/20 05:07:08;;;;;;;0.63;0.30;;;;;;;23.51;32.18;100597.50;4962936;28;20117;-83
2022/10/20 05:09:33;;;;;;;0.40;0.35;;;;;;;23.60;32.18;100618.56;4976782;28;20058;-84
2022/10/20 05:11:59;;;;;;;0.47;0.40;;;;;;;23.62;32.18;100612.81;4984040;28;20117;-83
2022/10/20 05:14:25;;;;;;;0.30;0.30;;;;;;;23.54;32.23;100597.81;4983794;28;20062;-83
2022/10/20 05:16:50;;;;;;;0.22;0.22;;;;;;;23.58;31.99;100612.53;4953883;28;20310;-84
2022/10/20 05:19:16;;;;;;;0.35;0.30;;;;;;;23.60;32.14;100620.47;4986099;28;20026;-83
2022/10/20 05:21:42;;;;;;;0.85;0.30;;;;;;;23.61;32.10;100613.91;4975363;28;20023;-84
2022/10/20 05:24:11;;;;;;;0.85;0.40;;;;;;;23.65;32.10;100617.75;4971597;28;20673;-84
2022/10/20 05:26:37;;;;;;;0.32;0.32;;;;;;;23.68;31.95;100611.75;4981269;28;20035;-84
2022/10/20 05:29:03;;;;;;;0.35;0.35;;;;;;;23.72;31.96;100617.50;4979381;28;20113;-84
2022/10/20 05:31:29;;;;;;;0.70;0.28;;;;;;;23.73;31.71;100619.97;4982203;28;20475;-84
2022/10/20 05:33:55;;;;;;;0.50;0.30;;;;;;;23.72;32.04;100617.50;4971691;28;20050;-83
2022/10/20 05:36:25;;;;;;;0.30;0.30;;;;;;;23.76;31.75;100619.41;4960859;28;20031;-84
2022/10/20 05:38:52;;;;;;;0.40;0.30;;;;;;;23.72;31.81;100621.03;4964782;28;20041;-84
2022/10/20 05:41:28;;;;;;;0.40;0.30;;;;;;;23.74;31.84;100626.22;4954743;28;20101;-84
2022/10/20 05:43:59;;;;;;;0.50;0.30;;;;;;;23.68;32.10;100633.59;4940455;28;20034;-83
2022/10/20 05:46:26;;;;;;;2.05;0.30;;;;;;;23.57;31.87;100626.44;4939322;28;20031;-84
2022/10/20 05:48:53;;;;;;;0.40;0.40;;;;;;;23.65;31.69;100614.22;4980565;28;20389;-84
2022/10/20 05:51:20;;;;;;;0.90;0.35;;;;;;;23.66;31.79;100622.09;4958611;28;20383;-83
2022/10/20 05:53:46;;;;;;;0.30;0.30;;;;;;;23.73;31.67;100625.41;4956148;28;20473;-84
2022/10/20 05:56:16;;;;;;;0.38;0.38;;;;;;;23.68;31.66;100625.41;4978447;28;20102;-84
2022/10/20 05:58:42;;;;;;;1.02;0.47;;;;;;;23.73;31.86;100628.16;4951807;28;20042;-83
2022/10/20 06:01:10;;;;;;;0.30;0.30;;;;;;;23.70;31.98;100627.84;4981959;28;20030;-84
2022/10/20 06:03:35;;;;;;;0.47;0.32;;;;;;;23.74;31.94;100637.94;4960209;28;20030;-84
2022/10/20 06:06:01;;;;;;;0.35;0.30;;;;;;;23.72;31.78;100634.69;4952612;28;20026;-84
2022/10/20 06:08:31;;;;;;;0.38;0.30;;;;;;;23.73;31.73;100638.22;4955839;28;20435;-83
2022/10/20 06:11:01;;;;;;;0.68;0.47;;;;;;;23.74;31.78;100626.22;4969926;28;20041;-84
2022/10/20 06:13:26;;;;;;;0.30;0.30;;;;;;;23.72;31.67;100645.59;4983213;28;20077;-84
2022/10/20 06:15:52;;;;;;;0.50;0.47;;;;;;;23.73;31.99;100649.97;4970818;28;20040;-83
2022/10/20 06:18:18;;;;;;;0.50;0.40;;;;;;;23.78;31.45;100655.44;4978000;28;20054;-84
2022/10/20 06:20:43;;;;;;;0.45;0.40;;;;;;;23.77;31.75;100650.25;4954370;28;20050;-84
2022/10/20 06:23:09;;;;;;;0.93;0.40;;;;;;;23.76;31.70;100652.13;4978785;28;20118;-84
2022/10/20 06:25:34;;;;;;;0.65;0.40;;;;;;;23.78;31.82;100649.97;4978283;28;20054;-84
2022/10/20 06:28:00;;;;;;;0.60;0.40;;;;;;;23.78;31.78;100652.72;4969133;28;20535;-84
2022/10/20 06:30:25;;;;;;;0.85;0.50;;;;;;;23.78;31.67;100658.16;4966850;28;20058;-84
2022/10/20 06:32:54;;;;;;;1.30;0.40;;;;;;;23.80;31.67;100664.19;4956140;28;20038;-84
2022/10/20 06:35:20;;;;;;;0.40;0.40;;;;;;;23.80;31.66;100658.72;4966430;28;20117;-84
2022/10/20 06:37:45;;;;;;;1.17;0.50;;;;;;;23.78;31.68;100657.34;4970625;28;20033;-84
2022/10/20 06:40:11;;;;;;;0.60;0.40;;;;;;;23.81;31.77;100668.56;4957657;28;20037;-84
2022/10/20 06:42:37;;;;;;;0.52;0.40;;;;;;;23.79;31.78;100667.97;4969051;28;20061;-84
2022/10/20 06:45:02;;;;;;;0.40;0.40;;;;;;;23.77;31.70;100674.81;4968830;28;20819;-84
2022/10/20 06:47:29;;;;;;;0.75;0.50;;;;;;;23.73;31.88;100674.53;4978961;28;20022;-84
2022/10/20 06:49:55;;;;;;;1.02;0.30;;;;;;;23.75;31.99;100672.34;4967754;28;20116;-84
2022/10/20 06:52:20;;;;;;;0.30;0.30;;;;;;;23.76;31.87;100668.50;4964086;28;20630;-84
2022/10/20 06:54:46;;;;;;;0.85;0.55;;;;;;;23.76;31.62;100673.97;4971643;28;20097;-83
2022/10/20 06:57:12;;;;;;;0.47;0.40;;;;;;;23.75;31.58;100671.50;4976860;28;20121;-84
2022/10/20 06:59:37;;;;;;;1.55;0.40;;;;;;;23.75;31.85;100683.25;4968472;28;20118;-84
2022/10/20 07:02:03;;;;;;;1.10;0.50;;;;;;;23.72;31.86;100682.97;4960312;28;20266;-84
2022/10/20 07:04:29;;;;;;;1.10;0.40;;;;;;;23.74;31.93;100692.53;4966059;28;20031;-84
2022/10/20 07:06:54;;;;;;;0.52;0.40;;;;;;;23.72;31.94;100691.97;4963274;28;20543;-84
2022/10/20 07:09:20;;;;;;;0.50;0.45;;;;;;;23.70;32.14;100698.78;4979570;28;20455;-84
2022/10/20 07:11:50;;;;;;;1.02;0.50;;;;;;;23.73;31.86;100704.53;4968969;28;20031;-84
2022/10/20 07:14:15;;;;;;;1.15;0.50;;;;;;;23.72;31.86;100713.81;4970593;28;20030;-84
2022/10/20 07:16:41;;;;;;;0.40;0.40;;;;;;;23.65;32.24;100709.69;4950668;28;20050;-84
2022/10/20 07:19:07;;;;;;;0.40;0.40;;;;;;;23.45;32.29;100689.41;4984478;28;20503;-84
2022/10/20 07:21:32;;;;;;;1.80;0.30;;;;;;;23.62;32.33;100717.31;4964654;28;20031;-84
2022/10/20 07:23:59;;;;;;;0.50;0.40;;;;;;;23.53;32.51;100718.91;4966354;28;20045;-83
2022/10/20 07:26:26;;;;;;;0.38;0.30;;;;;;;23.50;32.64;100729.53;4958181;28;20023;-84
2022/10/20 07:28:54;;;;;;;0.57;0.40;;;;;;;23.48;32.64;100726.25;4959260;28;20033;-84
2022/10/20 07:31:24;;;;;;;0.90;0.30;;;;;;;23.43;32.50;100725.13;4955508;28;20022;-84
2022/10/20 07:33:49;;;;;;;1.20;0.47;;;;;;;23.42;32.73;100725.41;4964802;28;20115;-84
2022/10/20 07:36:16;;;;;;;0.22;0.22;;;;;;;23.49;32.45;100727.88;4955248;28;20026;-84
2022/10/20 07:38:42;;;;;;;0.65;0.45;;;;;;;23.45;32.54;100735.78;4960274;28;20064;-84
2022/10/20 07:41:08;;;;;;;0.63;0.50;;;;;;;23.43;32.60;100735.22;4970818;28;20026;-84
2022/10/20 07:43:34;;;;;;;0.60;0.43;;;;;;;23.46;32.92;100733.88;4971681;28;20030;-84
2022/10/20 07:46:00;;;;;;;0.55;0.47;;;;;;;23.43;32.92;100737.97;4936513;28;20022;-83
2022/10/20 07:48:25;;;;;;;0.68;0.30;;;;;;;23.36;33.02;100740.13;4967020;28;20018;-84
2022/10/20 07:50:51;;;;;;;1.35;0.50;;;;;;;23.24;32.96;100726.69;4976168;28;20035;-84
2022/10/20 07:53:17;;;;;;;0.63;0.52;;;;;;;23.30;33.05;100750.19;4971175;28;20034;-84
2022/10/20 07:55:44;;;;;;;0.30;0.30;;;;;;;23.24;33.25;100743.84;4979865;28;20114;-84
2022/10/20 07:58:10;;;;;;;0.47;0.40;;;;;;;23.21;33.17;100740.84;4974103;28;20394;-83
2022/10/20 08:00:36;;;;;;;0.40;0.40;;;;;;;23.23;32.98;100744.97;4957371;28;20031;-83
2022/10/20 08:03:02;;;;;;;1.38;0.40;;;;;;;23.20;33.31;100747.38;4974055;28;20041;-83
2022/10/20 08:05:28;;;;;;;0.38;0.38;;;;;;;23.20;33.14;100747.38;4973032;28;20388;-84
2022/10/20 08:07:54;;;;;;;0.50;0.40;;;;;;;23.11;33.47;100738.03;4975045;28;20467;-84
2022/10/20 08:10:20;;;;;;;0.50;0.50;;;;;;;23.17;33.34;100750.63;4969475;28;20452;-84
2022/10/20 08:12:45;;;;;;;0.43;0.32;;;;;;;23.13;33.37;100746.78;4957124;28;20114;-84
2022/10/20 08:15:11;;;;;;;0.40;0.40;;;;;;;23.08;33.72;100758.47;4975529;28;20322;-84
2022/10/20 08:17:40;;;;;;;0.30;0.30;;;;;;;23.10;33.83;100760.94;4955318;28;20454;-84
2022/10/20 08:20:06;;;;;;;0.50;0.50;;;;;;;23.04;33.75;100766.34;4977739;28;20104;-84
2022/10/20 08:22:31;;;;;;;0.50;0.50;;;;;;;22.98;34.05;100761.09;4959166;28;20113;-84
2022/10/20 08:24:57;;;;;;;0.35;0.35;;;;;;;22.92;34.25;100748.50;4976587;28;20523;-84
2022/10/20 08:27:23;;;;;;;0.95;0.38;;;;;;;22.90;34.07;100748.78;4976740;28;20116;-84
2022/10/20 08:29:48;;;;;;;0.40;0.40;;;;;;;22.87;34.03;100755.56;4974193;28;20026;-83
2022/10/20 08:32:14;;;;;;;0.30;0.30;;;;;;;22.86;34.24;100764.81;4978252;28;20118;-83
2022/10/20 08:34:39;;;;;;;0.88;0.40;;;;;;;22.85;34.14;100754.19;4969431;28;20479;-84
2022/10/20 08:37:05;;;;;;;1.60;0.50;;;;;;;22.86;34.32;100758.56;4974504;28;20044;-84
2022/10/20 08:39:31;;;;;;;0.50;0.30;;;;;;;22.85;34.43;100762.34;4964629;28;20110;-84
2022/10/20 08:41:56;;;;;;;0.35;0.32;;;;;;;22.83;34.28;100767.25;4959367;28;20046;-84
2022/10/20 08:44:27;;;;;;;0.30;0.30;;;;;;;22.86;34.34;100770.28;4956752;28;20042;-84
2022/10/20 08:46:52;;;;;;;1.35;0.40;;;;;;;22.79;34.23;100764.22;4953684;28;20038;-84
2022/10/20 08:49:29;;;;;;;0.40;0.40;;;;;;;22.81;34.38;100777.59;4959773;28;20029;-84
2022/10/20 08:51:55;;;;;;;0.32;0.32;;;;;;;22.65;34.53;100757.59;4971792;28;20623;-84
2022/10/20 08:54:21;;;;;;;0.75;0.40;;;;;;;22.74;34.58;100777.00;4958597;28;20033;-84
2022/10/20 08:56:46;;;;;;;0.40;0.35;;;;;;;22.68;34.87;100776.94;4982460;28;20049;-84
2022/10/20 08:59:34;;;;;;;0.43;0.43;;;;;;;22.62;34.94;100780.69;4969451;28;20499;-84
2022/10/20 09:02:00;;;;;;;0.30;0.30;;;;;;;22.58;34.86;100785.03;4951219;28;20110;-83
2022/10/20 09:04:38;;;;;;;0.47;0.47;;;;;;;22.57;35.06;100788.00;4966912;28;20463;-84
2022/10/20 09:07:10;;;;;;;0.60;0.40;;;;;;;22.58;34.97;100782.31;4964144;28;20038;-84
2022/10/20 09:09:36;;;;;;;1.27;0.40;;;;;;;22.48;34.88;100774.03;4950811;28;20098;-84
2022/10/20 09:12:03;;;;;;;0.50;0.50;;;;;;;22.58;34.91;100787.75;4974623;28;20026;-84
2022/10/20 09:14:31;;;;;;;0.68;0.45;;;;;;;22.50;35.10;100769.97;4960372;28;20025;-84
2022/10/20 09:16:56;;;;;;;0.30;0.30;;;;;;;22.59;35.02;100789.38;4949922;28;20051;-84
2022/10/20 09:19:22;;;;;;;0.55;0.30;;;;;;;22.55;35.20;100790.97;4955583;28;20045;-84
2022/10/20 09:21:51;;;;;;;0.68;0.38;;;;;;;22.47;35.24;100786.84;4953138;28;20104;-84
2022/10/20 09:24:16;;;;;;;0.38;0.30;;;;;;;22.47;35.29;100791.44;4959968;28;20069;-84
2022/10/20 09:26:43;;;;;;;0.30;0.30;;;;;;;22.43;35.37;100798.50;4952143;28;20031;-84
2022/10/20 09:29:16;;;;;;;0.47;0.30;;;;;;;22.37;35.46;100796.78;4951824;28;20284;-84
2022/10/20 09:31:43;;;;;;;0.73;0.40;;;;;;;22.30;35.75;100792.38;4935725;28;20038;-84
2022/10/20 09:34:19;;;;;;;0.68;0.35;;;;;;;22.28;35.73;100796.41;4971105;28;20031;-84
2022/10/20 09:36:45;;;;;;;0.40;0.40;;;;;;;22.28;35.81;100796.41;4944865;28;20027;-84
2022/10/20 09:39:21;;;;;;;0.90;0.50;;;;;;;22.28;35.86;100794.53;4962992;28;20070;-84
2022/10/20 09:41:46;;;;;;;0.45;0.35;;;;;;;22.26;35.98;100799.38;4943443;28;20085;-84
2022/10/20 09:44:22;;;;;;;0.30;0.30;;;;;;;22.30;35.72;100805.16;4982804;28;20101;-84
2022/10/20 09:46:50;;;;;;;0.47;0.40;;;;;;;22.27;35.88;100802.94;4955840;28;20031;-84
2022/10/20 09:49:31;;;;;;;1.08;0.40;;;;;;;22.28;35.95;100810.88;4941851;28;20422;-84
2022/10/20 09:51:57;;;;;;;0.60;0.40;;;;;;;22.28;35.98;100812.75;4971257;28;20038;-84
2022/10/20 09:54:23;;;;;;;0.40;0.35;;;;;;;22.21;36.00;100801.22;4956215;28;20022;-84
2022/10/20 09:56:52;;;;;;;0.45;0.30;;;;;;;22.20;36.00;100811.28;4983157;28;20436;-84
2022/10/20 09:59:24;;;;;;;1.17;0.30;;;;;;;22.10;36.39;100812.00;4950447;28;20042;-84
2022/10/20 10:01:57;;;;;;;0.50;0.40;;;;;;;22.04;36.57;100815.75;4969435;28;20192;-84
2022/10/20 10:04:52;;;;;;;0.57;0.50;;;;;;;21.88;36.77;100819.34;4974683;28;20263;-84
2022/10/20 10:07:20;;;;;;;;;;;;;;;21.88;36.36;100820.16;4978421;28;20038;-84
2022/10/20 10:10:02;;;;;;;0.30;0.30;;;;;;;21.82;36.42;100820.34;4969029;28;20001;-84
2022/10/20 10:12:29;;;;;;;0.50;0.50;;;;;;;21.73;36.45;100811.78;4973911;28;20027;-84
2022/10/20 10:15:31;;;;;;;1.05;0.30;;;;;;;21.66;36.62;100812.00;4961686;28;20061;-84
2022/10/20 10:17:57;;;;;;;1.23;0.50;;;;;;;21.56;36.64;100809.13;4926873;28;955919;-84
2022/10/20 10:20:31;;;;;;;0.30;0.30;;;;;;;21.51;37.00;100800.91;4964601;28;20030;-84
2022/10/20 10:23:26;;;;;;;0.82;0.40;;;;;;;21.48;37.11;100798.69;4952821;28;20063;-84
2022/10/20 10:25:52;;;;;;;0.85;0.52;;;;;;;21.41;37.11;100804.25;4972861;28;20108;-84
2022/10/20 10:28:34;;;;;;;0.50;0.40;;;;;;;21.35;37.33;100803.38;4940281;28;20524;-84
2022/10/20 10:31:17;;;;;;;0.77;0.30;;;;;;;21.33;37.08;100793.81;4979575;28;20546;-84
2022/10/20 10:33:42;;;;;;;0.40;0.40;;;;;;;21.29;37.48;100784.50;4966148;28;20030;-84
2022/10/20 10:36:14;;;;;;;0.80;0.40;;;;;;;21.26;37.48;100787.72;4967316;28;21093;-84
2022/10/20 10:38:40;;;;;;;0.65;0.40;;;;;;;21.15;37.52;100792.19;4921087;28;20026;-84
2022/10/20 10:41:19;;;;;;;0.95;0.52;;;;;;;21.24;37.59;100792.59;4969161;28;20455;-84
2022/10/20 10:43:51;;;;;;;0.45;0.40;;;;;;;21.19;37.69;100782.44;4969047;28;20030;-84
2022/10/20 10:46:19;;;;;;;0.20;0.20;;;;;;;21.14;37.86;100791.34;4966922;28;20403;-84
2022/10/20 10:49:05;;;;;;;0.73;0.40;;;;;;;21.13;37.92;100792.44;4970987;28;20064;-84
2022/10/20 10:51:46;;;;;;;0.32;0.20;;;;;;;21.11;37.96;100789.16;4971358;28;20109;-84
2022/10/20 10:54:53;;;;;;;0.30;0.30;;;;;;;21.13;37.94;100797.06;4968602;28;20039;-84
2022/10/20 10:57:47;;;;;;;0.95;0.50;;;;;;;21.11;37.98;100794.56;4958541;28;20130;-84
2022/10/20 11:00:19;;;;;;;0.87;0.40;;;;;;;21.06;38.17;100780.06;4963899;28;20026;-84
2022/10/20 11:03:09;;;;;;;0.20;0.20;;;;;;;21.07;38.11;100787.97;4962353;28;20037;-84
2022/10/20 11:05:58;;;;;;;0.90;0.50;;;;;;;21.07;37.98;100777.09;4951056;28;20031;-84
2022/10/20 11:08:34;;;;;;;0.52;0.32;;;;;;;21.03;38.36;100769.72;4951341;28;20025;-84
2022/10/20 11:11:15;;;;;;;0.88;0.40;;;;;;;21.01;38.31;100769.97;4952412;28;20407;-84
2022/10/20 11:14:07;;;;;;;1.52;0.60;;;;;;;21.04;38.26;100776.78;4967773;28;20037;-84
2022/10/20 11:16:51;;;;;;;0.43;0.40;;;;;;;20.99;38.30;100782.97;4932216;28;20130;-84
2022/10/20 11:19:44;;;;;;;0.40;0.40;;;;;;;20.95;38.53;100784.53;4970248;28;20031;-84
2022/10/20 11:22:37;;;;;;;0.68;0.47;;;;;;;20.94;38.40;100793.75;4936440;28;20063;-84
2022/10/20 11:25:17;;;;;;;0.30;0.30;;;;;;;20.93;38.57;100789.38;4968171;28;20029;-84
2022/10/20 11:27:48;;;;;;;0.73;0.35;;;;;;;20.91;38.46;100780.66;4969851;28;20031;-84
2022/10/20 11:30:22;;;;;;;0.65;0.40;;;;;;;20.84;38.44;100780.00;4966548;28;20031;-84
2022/10/20 11:33:16;;;;;;;0.40;0.40;;;;;;;20.90;38.57;100792.59;4965669;28;20073;-84